sensor_id;sensor_type;location;lat;lon;timestamp;pressure;altitude;pressure_sealevel;temperature;humidity
27210;BME280;14721;42.668;23.386;2022-09-09T00:04:38;95472.06;;;19.71;70.70
27210;BME280;14721;42.668;23.386;2022-09-09T00:13:13;95477.78;;;19.60;71.15
27210;BME280;14721;42.668;23.386;2022-09-09T00:15:57;95464.03;;;19.53;71.27
27210;BME280;14721;42.668;23.386;2022-09-09T00:18:38;95475.06;;;19.60;71.40
27210;BME280;14721;42.668;23.386;2022-09-09T00:21:13;95472.97;;;19.46;71.86
27210;BME280;14721;42.668;23.386;2022-09-09T00:23:48;95472.28;;;19.36;72.33
27210;BME280;14721;42.668;23.386;2022-09-09T00:31:28;95454.38;;;19.17;73.48
27210;BME280;14721;42.668;23.386;2022-09-09T00:33:58;95452.97;;;19.05;74.01
27210;BME280;14721;42.668;23.386;2022-09-09T00:36:28;95449.69;;;18.94;74.57
27210;BME280;14721;42.668;23.386;2022-09-09T00:38:57;95456.84;;;19.03;74.08
27210;BME280;14721;42.668;23.386;2022-09-09T00:44:35;95435.03;;;19.04;75.57
27210;BME280;14721;42.668;23.386;2022-09-09T00:47:09;95436.69;;;18.97;75.81
27210;BME280;14721;42.668;23.386;2022-09-09T00:55:59;95443.56;;;18.84;75.62
27210;BME280;14721;42.668;23.386;2022-09-09T00:58:26;95450.81;;;18.83;75.96
27210;BME280;14721;42.668;23.386;2022-09-09T01:03:56;95437.81;;;18.87;75.46
27210;BME280;14721;42.668;23.386;2022-09-09T01:06:35;95440.38;;;18.88;75.89
27210;BME280;14721;42.668;23.386;2022-09-09T01:12:07;95433.22;;;18.87;75.76
27210;BME280;14721;42.668;23.386;2022-09-09T01:17:23;95431.97;;;18.73;76.57
27210;BME280;14721;42.668;23.386;2022-09-09T01:20:08;95444.84;;;18.72;76.85
27210;BME280;14721;42.668;23.386;2022-09-09T01:27:49;95435.84;;;18.71;76.81
27210;BME280;14721;42.668;23.386;2022-09-09T01:30:18;95427.97;;;18.78;76.84
27210;BME280;14721;42.668;23.386;2022-09-09T01:32:45;95415.00;;;18.63;76.81
27210;BME280;14721;42.668;23.386;2022-09-09T01:35:55;95439.78;;;18.77;76.71
27210;BME280;14721;42.668;23.386;2022-09-09T01:38:22;95433.69;;;18.75;76.20
27210;BME280;14721;42.668;23.386;2022-09-09T01:40:52;95450.81;;;18.83;76.81
27210;BME280;14721;42.668;23.386;2022-09-09T01:43:20;95461.59;;;18.75;77.67
27210;BME280;14721;42.668;23.386;2022-09-09T01:45:46;95447.16;;;18.66;77.80
27210;BME280;14721;42.668;23.386;2022-09-09T01:48:13;95455.97;;;18.68;77.79
27210;BME280;14721;42.668;23.386;2022-09-09T01:50:38;95459.16;;;18.64;77.58
27210;BME280;14721;42.668;23.386;2022-09-09T01:53:04;95454.91;;;18.61;77.68
27210;BME280;14721;42.668;23.386;2022-09-09T01:55:33;95458.41;;;18.54;77.48
27210;BME280;14721;42.668;23.386;2022-09-09T01:58:27;95455.66;;;18.46;77.06
27210;BME280;14721;42.668;23.386;2022-09-09T02:03:57;95468.00;;;18.48;77.19
27210;BME280;14721;42.668;23.386;2022-09-09T02:06:38;95462.13;;;18.53;77.39
27210;BME280;14721;42.668;23.386;2022-09-09T02:09:10;95457.13;;;18.40;77.15
27210;BME280;14721;42.668;23.386;2022-09-09T02:11:38;95453.44;;;18.41;77.33
27210;BME280;14721;42.668;23.386;2022-09-09T02:14:12;95458.88;;;18.49;78.20
27210;BME280;14721;42.668;23.386;2022-09-09T02:16:44;95454.78;;;18.45;77.72
27210;BME280;14721;42.668;23.386;2022-09-09T02:19:15;95452.56;;;18.41;77.50
27210;BME280;14721;42.668;23.386;2022-09-09T02:21:53;95447.16;;;18.41;77.47
27210;BME280;14721;42.668;23.386;2022-09-09T02:24:21;95438.03;;;18.42;77.14
27210;BME280;14721;42.668;23.386;2022-09-09T02:26:50;95433.78;;;18.39;77.37
27210;BME280;14721;42.668;23.386;2022-09-09T02:29:22;95429.69;;;18.35;77.48
27210;BME280;14721;42.668;23.386;2022-09-09T02:31:49;95440.56;;;18.43;77.46
27210;BME280;14721;42.668;23.386;2022-09-09T02:34:17;95439.03;;;18.41;78.06
27210;BME280;14721;42.668;23.386;2022-09-09T02:36:46;95443.28;;;18.43;77.98
27210;BME280;14721;42.668;23.386;2022-09-09T02:39:16;95447.06;;;18.50;78.48
27210;BME280;14721;42.668;23.386;2022-09-09T02:41:42;95446.53;;;18.47;79.27
27210;BME280;14721;42.668;23.386;2022-09-09T02:44:14;95445.31;;;18.41;79.16
27210;BME280;14721;42.668;23.386;2022-09-09T02:55:41;95453.25;;;18.25;78.86
27210;BME280;14721;42.668;23.386;2022-09-09T02:58:10;95462.53;;;18.23;79.24
27210;BME280;14721;42.668;23.386;2022-09-09T03:00:38;95447.41;;;18.12;79.34
27210;BME280;14721;42.668;23.386;2022-09-09T03:03:14;95456.56;;;18.19;79.08
27210;BME280;14721;42.668;23.386;2022-09-09T03:05:45;95457.03;;;18.15;79.63
27210;BME280;14721;42.668;23.386;2022-09-09T03:08:12;95463.16;;;18.17;79.31
27210;BME280;14721;42.668;23.386;2022-09-09T03:10:38;95459.81;;;18.23;79.92
27210;BME280;14721;42.668;23.386;2022-09-09T03:13:04;95469.59;;;18.16;79.85
27210;BME280;14721;42.668;23.386;2022-09-09T03:15:34;95461.53;;;18.06;80.17
27210;BME280;14721;42.668;23.386;2022-09-09T03:18:00;95458.22;;;18.12;80.20
27210;BME280;14721;42.668;23.386;2022-09-09T03:20:28;95473.38;;;18.05;80.58
27210;BME280;14721;42.668;23.386;2022-09-09T03:22:54;95472.19;;;18.08;80.59
27210;BME280;14721;42.668;23.386;2022-09-09T03:25:22;95465.72;;;18.01;81.23
27210;BME280;14721;42.668;23.386;2022-09-09T03:27:52;95458.94;;;17.97;81.55
27210;BME280;14721;42.668;23.386;2022-09-09T03:30:23;95465.03;;;17.99;82.03
27210;BME280;14721;42.668;23.386;2022-09-09T03:32:49;95449.97;;;17.96;82.07
27210;BME280;14721;42.668;23.386;2022-09-09T03:35:15;95455.59;;;17.85;82.56
27210;BME280;14721;42.668;23.386;2022-09-09T03:37:42;95471.66;;;17.87;83.15
27210;BME280;14721;42.668;23.386;2022-09-09T03:40:08;95454.53;;;17.78;83.52
27210;BME280;14721;42.668;23.386;2022-09-09T03:42:35;95470.44;;;17.81;83.96
27210;BME280;14721;42.668;23.386;2022-09-09T03:45:07;95460.53;;;17.72;84.33
27210;BME280;14721;42.668;23.386;2022-09-09T03:47:36;95457.22;;;17.61;84.96
27210;BME280;14721;42.668;23.386;2022-09-09T03:50:03;95464.88;;;17.65;84.97
27210;BME280;14721;42.668;23.386;2022-09-09T03:52:30;95463.16;;;17.64;85.21
27210;BME280;14721;42.668;23.386;2022-09-09T03:54:57;95467.94;;;17.70;85.19
27210;BME280;14721;42.668;23.386;2022-09-09T03:57:28;95472.13;;;17.65;85.51
27210;BME280;14721;42.668;23.386;2022-09-09T03:59:56;95474.66;;;17.66;85.86
27210;BME280;14721;42.668;23.386;2022-09-09T04:02:23;95470.19;;;17.57;86.14
27210;BME280;14721;42.668;23.386;2022-09-09T04:04:49;95481.09;;;17.65;86.26
27210;BME280;14721;42.668;23.386;2022-09-09T04:07:15;95482.47;;;17.69;86.13
27210;BME280;14721;42.668;23.386;2022-09-09T04:09:41;95482.16;;;17.72;86.37
27210;BME280;14721;42.668;23.386;2022-09-09T04:12:07;95478.44;;;17.56;87.19
27210;BME280;14721;42.668;23.386;2022-09-09T04:14:33;95468.66;;;17.55;86.77
27210;BME280;14721;42.668;23.386;2022-09-09T04:16:59;95475.38;;;17.68;86.28
27210;BME280;14721;42.668;23.386;2022-09-09T04:19:25;95478.59;;;17.72;86.18
27210;BME280;14721;42.668;23.386;2022-09-09T04:21:51;95472.69;;;17.86;86.28
27210;BME280;14721;42.668;23.386;2022-09-09T04:24:17;95473.91;;;17.91;84.96
27210;BME280;14721;42.668;23.386;2022-09-09T04:26:44;95470.06;;;17.94;84.02
27210;BME280;14721;42.668;23.386;2022-09-09T04:29:12;95473.38;;;18.05;82.97
27210;BME280;14721;42.668;23.386;2022-09-09T04:31:38;95477.38;;;18.19;81.80
27210;BME280;14721;42.668;23.386;2022-09-09T04:34:11;95474.13;;;18.15;82.14
27210;BME280;14721;42.668;23.386;2022-09-09T04:36:39;95472.34;;;18.24;81.42
27210;BME280;14721;42.668;23.386;2022-09-09T04:39:06;95473.44;;;18.31;81.10
27210;BME280;14721;42.668;23.386;2022-09-09T04:41:31;95481.00;;;18.45;80.95
27210;BME280;14721;42.668;23.386;2022-09-09T04:43:58;95484.63;;;18.53;80.57
27210;BME280;14721;42.668;23.386;2022-09-09T04:46:25;95490.56;;;18.57;80.42
27210;BME280;14721;42.668;23.386;2022-09-09T04:48:51;95478.03;;;18.56;79.79
27210;BME280;14721;42.668;23.386;2022-09-09T04:51:18;95492.44;;;18.56;79.90
27210;BME280;14721;42.668;23.386;2022-09-09T04:53:44;95477.03;;;18.57;79.10
27210;BME280;14721;42.668;23.386;2022-09-09T04:56:15;95473.53;;;18.64;78.90
27210;BME280;14721;42.668;23.386;2022-09-09T04:58:43;95466.16;;;18.75;78.06
27210;BME280;14721;42.668;23.386;2022-09-09T05:01:19;95460.91;;;19.07;77.15
27210;BME280;14721;42.668;23.386;2022-09-09T05:03:46;95460.28;;;19.46;75.75
27210;BME280;14721;42.668;23.386;2022-09-09T05:06:23;95466.34;;;20.06;73.42
27210;BME280;14721;42.668;23.386;2022-09-09T05:08:50;95462.28;;;20.82;70.89
27210;BME280;14721;42.668;23.386;2022-09-09T05:11:25;95445.56;;;21.72;67.15
27210;BME280;14721;42.668;23.386;2022-09-09T05:13:52;95426.09;;;22.36;63.04
27210;BME280;14721;42.668;23.386;2022-09-09T05:16:20;95440.09;;;23.07;60.82
27210;BME280;14721;42.668;23.386;2022-09-09T05:18:47;95438.00;;;23.82;58.37
27210;BME280;14721;42.668;23.386;2022-09-09T05:21:15;95452.47;;;24.33;55.83
27210;BME280;14721;42.668;23.386;2022-09-09T05:23:41;95450.91;;;24.87;54.02
27210;BME280;14721;42.668;23.386;2022-09-09T05:26:13;95437.28;;;25.48;51.90
27210;BME280;14721;42.668;23.386;2022-09-09T05:28:40;95437.59;;;26.07;49.97
27210;BME280;14721;42.668;23.386;2022-09-09T05:31:09;95434.81;;;26.67;47.93
27210;BME280;14721;42.668;23.386;2022-09-09T05:33:37;95430.56;;;27.04;46.72
27210;BME280;14721;42.668;23.386;2022-09-09T05:36:07;95430.59;;;27.17;46.00
27210;BME280;14721;42.668;23.386;2022-09-09T05:38:34;95434.13;;;27.57;44.74
27210;BME280;14721;42.668;23.386;2022-09-09T05:41:01;95432.44;;;27.62;43.58
27210;BME280;14721;42.668;23.386;2022-09-09T05:43:28;95436.16;;;27.94;43.15
27210;BME280;14721;42.668;23.386;2022-09-09T05:48:37;95441.09;;;28.23;42.30
27210;BME280;14721;42.668;23.386;2022-09-09T05:51:03;95449.03;;;27.93;43.21
27210;BME280;14721;42.668;23.386;2022-09-09T05:53:30;95450.97;;;27.86;42.69
27210;BME280;14721;42.668;23.386;2022-09-09T05:56:07;95442.88;;;28.04;42.64
27210;BME280;14721;42.668;23.386;2022-09-09T05:58:36;95446.13;;;28.32;42.35
27210;BME280;14721;42.668;23.386;2022-09-09T06:01:08;95450.69;;;28.45;42.05
27210;BME280;14721;42.668;23.386;2022-09-09T06:03:35;95458.75;;;28.46;41.24
27210;BME280;14721;42.668;23.386;2022-09-09T06:06:03;95451.75;;;28.44;41.12
27210;BME280;14721;42.668;23.386;2022-09-09T06:08:34;95470.13;;;28.56;40.44
27210;BME280;14721;42.668;23.386;2022-09-09T06:11:11;95468.91;;;28.83;39.75
27210;BME280;14721;42.668;23.386;2022-09-09T06:13:38;95466.25;;;28.95;38.96
27210;BME280;14721;42.668;23.386;2022-09-09T06:16:05;95463.75;;;28.93;38.80
27210;BME280;14721;42.668;23.386;2022-09-09T06:18:32;95467.44;;;29.12;38.53
27210;BME280;14721;42.668;23.386;2022-09-09T06:21:04;95458.34;;;29.11;38.80
27210;BME280;14721;42.668;23.386;2022-09-09T06:23:30;95458.75;;;29.58;37.33
27210;BME280;14721;42.668;23.386;2022-09-09T06:26:09;95458.50;;;29.41;37.44
27210;BME280;14721;42.668;23.386;2022-09-09T06:28:36;95463.50;;;29.75;37.74
27210;BME280;14721;42.668;23.386;2022-09-09T06:31:07;95473.44;;;29.76;36.87
27210;BME280;14721;42.668;23.386;2022-09-09T06:33:35;95463.56;;;29.69;37.04
27210;BME280;14721;42.668;23.386;2022-09-09T06:36:05;95469.47;;;30.08;35.41
27210;BME280;14721;42.668;23.386;2022-09-09T06:38:32;95454.91;;;30.01;35.92
27210;BME280;14721;42.668;23.386;2022-09-09T06:40:59;95448.13;;;30.40;35.33
27210;BME280;14721;42.668;23.386;2022-09-09T06:43:26;95454.09;;;30.37;34.91
27210;BME280;14721;42.668;23.386;2022-09-09T06:45:55;95452.72;;;30.28;35.44
27210;BME280;14721;42.668;23.386;2022-09-09T06:48:21;95437.91;;;30.40;34.81
27210;BME280;14721;42.668;23.386;2022-09-09T06:50:48;95443.38;;;30.29;35.18
27210;BME280;14721;42.668;23.386;2022-09-09T06:53:18;95447.09;;;30.16;35.41
27210;BME280;14721;42.668;23.386;2022-09-09T06:55:50;95456.94;;;30.60;35.14
27210;BME280;14721;42.668;23.386;2022-09-09T06:58:17;95460.53;;;30.78;34.85
27210;BME280;14721;42.668;23.386;2022-09-09T07:00:44;95460.09;;;30.93;34.60
27210;BME280;14721;42.668;23.386;2022-09-09T07:03:10;95469.41;;;31.22;33.59
27210;BME280;14721;42.668;23.386;2022-09-09T07:05:38;95468.91;;;31.13;33.61
27210;BME280;14721;42.668;23.386;2022-09-09T07:08:03;95470.50;;;31.21;33.22
27210;BME280;14721;42.668;23.386;2022-09-09T07:10:30;95450.03;;;30.98;33.26
27210;BME280;14721;42.668;23.386;2022-09-09T07:12:56;95456.69;;;30.79;34.45
27210;BME280;14721;42.668;23.386;2022-09-09T07:15:25;95459.63;;;31.49;32.27
27210;BME280;14721;42.668;23.386;2022-09-09T07:17:51;95454.81;;;31.56;32.19
27210;BME280;14721;42.668;23.386;2022-09-09T07:20:18;95458.16;;;31.35;32.55
27210;BME280;14721;42.668;23.386;2022-09-09T07:22:45;95459.69;;;31.19;32.93
27210;BME280;14721;42.668;23.386;2022-09-09T07:25:11;95466.59;;;31.51;32.53
27210;BME280;14721;42.668;23.386;2022-09-09T07:27:37;95459.88;;;31.59;31.67
27210;BME280;14721;42.668;23.386;2022-09-09T07:30:03;95445.09;;;31.53;32.44
27210;BME280;14721;42.668;23.386;2022-09-09T07:32:29;95450.03;;;31.86;32.48
27210;BME280;14721;42.668;23.386;2022-09-09T07:34:56;95439.94;;;31.80;32.59
27210;BME280;14721;42.668;23.386;2022-09-09T07:37:23;95443.44;;;31.98;32.31
27210;BME280;14721;42.668;23.386;2022-09-09T07:39:49;95444.50;;;32.09;32.15
27210;BME280;14721;42.668;23.386;2022-09-09T07:42:16;95444.00;;;32.35;31.26
27210;BME280;14721;42.668;23.386;2022-09-09T07:44:42;95449.38;;;32.30;31.45
27210;BME280;14721;42.668;23.386;2022-09-09T07:47:08;95454.06;;;32.29;31.43
27210;BME280;14721;42.668;23.386;2022-09-09T07:49:34;95456.69;;;32.47;30.44
27210;BME280;14721;42.668;23.386;2022-09-09T07:52:01;95457.72;;;32.70;31.00
27210;BME280;14721;42.668;23.386;2022-09-09T07:54:28;95461.88;;;33.12;30.55
27210;BME280;14721;42.668;23.386;2022-09-09T07:56:55;95447.28;;;33.16;30.05
27210;BME280;14721;42.668;23.386;2022-09-09T07:59:21;95446.41;;;32.99;30.22
27210;BME280;14721;42.668;23.386;2022-09-09T08:01:49;95446.88;;;32.68;30.74
27210;BME280;14721;42.668;23.386;2022-09-09T08:04:17;95435.44;;;33.04;30.36
27210;BME280;14721;42.668;23.386;2022-09-09T08:06:48;95438.47;;;33.36;30.59
27210;BME280;14721;42.668;23.386;2022-09-09T08:09:15;95428.88;;;33.76;29.80
27210;BME280;14721;42.668;23.386;2022-09-09T08:11:42;95438.31;;;33.59;29.99
27210;BME280;14721;42.668;23.386;2022-09-09T08:14:10;95443.63;;;32.71;30.98
27210;BME280;14721;42.668;23.386;2022-09-09T08:16:39;95442.19;;;32.29;31.75
27210;BME280;14721;42.668;23.386;2022-09-09T08:19:08;95442.59;;;31.98;31.94
27210;BME280;14721;42.668;23.386;2022-09-09T08:21:36;95448.34;;;31.62;32.34
27210;BME280;14721;42.668;23.386;2022-09-09T08:24:02;95443.38;;;31.18;32.74
27210;BME280;14721;42.668;23.386;2022-09-09T08:26:36;95438.75;;;31.41;33.09
27210;BME280;14721;42.668;23.386;2022-09-09T08:29:05;95436.34;;;31.91;32.80
27210;BME280;14721;42.668;23.386;2022-09-09T08:31:37;95437.13;;;32.14;32.09
27210;BME280;14721;42.668;23.386;2022-09-09T08:34:05;95432.75;;;31.90;32.58
27210;BME280;14721;42.668;23.386;2022-09-09T08:36:35;95433.69;;;31.73;33.26
27210;BME280;14721;42.668;23.386;2022-09-09T08:39:05;95432.84;;;31.38;33.58
27210;BME280;14721;42.668;23.386;2022-09-09T08:55:24;95423.22;;;30.28;35.36
27210;BME280;14721;42.668;23.386;2022-09-09T08:57:54;95415.66;;;30.24;35.22
27210;BME280;14721;42.668;23.386;2022-09-09T09:00:21;95418.63;;;30.40;35.25
27210;BME280;14721;42.668;23.386;2022-09-09T09:03:15;95409.88;;;30.73;34.60
27210;BME280;14721;42.668;23.386;2022-09-09T09:11:55;95408.50;;;30.16;35.71
27210;BME280;14721;42.668;23.386;2022-09-09T09:14:28;95412.41;;;30.45;35.63
27210;BME280;14721;42.668;23.386;2022-09-09T09:17:01;95405.84;;;30.87;35.36
27210;BME280;14721;42.668;23.386;2022-09-09T09:19:29;95404.22;;;31.09;35.07
27210;BME280;14721;42.668;23.386;2022-09-09T09:22:31;95412.94;;;31.36;34.50
27210;BME280;14721;42.668;23.386;2022-09-09T09:25:23;95406.88;;;31.27;34.82
27210;BME280;14721;42.668;23.386;2022-09-09T09:28:26;95403.63;;;31.19;34.52
27210;BME280;14721;42.668;23.386;2022-09-09T09:31:03;95392.09;;;31.22;33.89
27210;BME280;14721;42.668;23.386;2022-09-09T09:36:13;95409.78;;;31.32;34.61
27210;BME280;14721;42.668;23.386;2022-09-09T09:38:53;95400.97;;;31.12;34.91
27210;BME280;14721;42.668;23.386;2022-09-09T09:41:40;95401.34;;;31.16;34.42
27210;BME280;14721;42.668;23.386;2022-09-09T09:44:29;95405.53;;;31.07;35.02
27210;BME280;14721;42.668;23.386;2022-09-09T09:47:15;95389.34;;;31.22;35.10
27210;BME280;14721;42.668;23.386;2022-09-09T09:49:55;95383.38;;;31.36;35.70
27210;BME280;14721;42.668;23.386;2022-09-09T09:52:27;95376.41;;;31.45;34.50
27210;BME280;14721;42.668;23.386;2022-09-09T09:54:58;95387.25;;;30.82;34.55
27210;BME280;14721;42.668;23.386;2022-09-09T09:57:30;95379.88;;;30.65;35.22
27210;BME280;14721;42.668;23.386;2022-09-09T10:00:18;95376.13;;;30.59;35.71
27210;BME280;14721;42.668;23.386;2022-09-09T10:02:46;95366.66;;;30.08;35.63
27210;BME280;14721;42.668;23.386;2022-09-09T10:05:25;95375.41;;;30.05;35.95
27210;BME280;14721;42.668;23.386;2022-09-09T10:08:14;95367.88;;;30.12;36.48
27210;BME280;14721;42.668;23.386;2022-09-09T10:11:09;95379.47;;;30.50;36.22
27210;BME280;14721;42.668;23.386;2022-09-09T10:13:49;95379.59;;;30.55;35.99
27210;BME280;14721;42.668;23.386;2022-09-09T10:16:50;95390.06;;;30.17;36.51
27210;BME280;14721;42.668;23.386;2022-09-09T10:19:26;95387.97;;;30.01;37.24
27210;BME280;14721;42.668;23.386;2022-09-09T10:33:09;95388.53;;;29.49;37.66
27210;BME280;14721;42.668;23.386;2022-09-09T10:43:58;95396.84;;;29.67;37.71
27210;BME280;14721;42.668;23.386;2022-09-09T10:55:23;95397.34;;;29.14;39.33
27210;BME280;14721;42.668;23.386;2022-09-09T10:57:57;95398.91;;;29.29;38.97
27210;BME280;14721;42.668;23.386;2022-09-09T11:00:27;95390.53;;;29.42;38.60
27210;BME280;14721;42.668;23.386;2022-09-09T11:03:01;95387.84;;;29.53;39.18
27210;BME280;14721;42.668;23.386;2022-09-09T11:05:43;95383.34;;;29.59;38.35
27210;BME280;14721;42.668;23.386;2022-09-09T11:08:20;95390.06;;;29.45;38.71
27210;BME280;14721;42.668;23.386;2022-09-09T11:13:35;95387.25;;;29.08;39.60
27210;BME280;14721;42.668;23.386;2022-09-09T11:16:30;95396.56;;;29.07;39.32
27210;BME280;14721;42.668;23.386;2022-09-09T11:19:04;95393.63;;;29.02;39.77
27210;BME280;14721;42.668;23.386;2022-09-09T11:21:35;95381.66;;;28.90;39.93
27210;BME280;14721;42.668;23.386;2022-09-09T11:24:10;95385.50;;;28.89;40.15
27210;BME280;14721;42.668;23.386;2022-09-09T11:26:43;95375.66;;;28.75;40.25
27210;BME280;14721;42.668;23.386;2022-09-09T11:40:41;95346.63;;;29.47;39.45
27210;BME280;14721;42.668;23.386;2022-09-09T11:43:16;95334.59;;;29.23;39.30
27210;BME280;14721;42.668;23.386;2022-09-09T11:45:51;95331.41;;;29.01;39.82
27210;BME280;14721;42.668;23.386;2022-09-09T11:48:36;95331.94;;;29.16;40.18
27210;BME280;14721;42.668;23.386;2022-09-09T11:53:31;95311.94;;;29.03;40.62
27210;BME280;14721;42.668;23.386;2022-09-09T11:56:06;95289.75;;;28.98;40.42
27210;BME280;14721;42.668;23.386;2022-09-09T11:58:43;95300.50;;;29.06;40.50
27210;BME280;14721;42.668;23.386;2022-09-09T12:01:36;95295.94;;;28.93;40.41
27210;BME280;14721;42.668;23.386;2022-09-09T12:04:17;95298.09;;;28.67;40.71
27210;BME280;14721;42.668;23.386;2022-09-09T12:06:51;95320.41;;;29.01;40.75
27210;BME280;14721;42.668;23.386;2022-09-09T12:09:23;95304.56;;;29.21;40.09
27210;BME280;14721;42.668;23.386;2022-09-09T12:11:52;95309.59;;;29.43;40.29
27210;BME280;14721;42.668;23.386;2022-09-09T12:17:19;95300.22;;;29.68;40.00
27210;BME280;14721;42.668;23.386;2022-09-09T12:19:46;95294.34;;;29.65;40.10
27210;BME280;14721;42.668;23.386;2022-09-09T12:24:49;95285.31;;;30.05;40.07
27210;BME280;14721;42.668;23.386;2022-09-09T12:27:28;95292.72;;;30.05;39.74
27210;BME280;14721;42.668;23.386;2022-09-09T12:30:12;95282.19;;;30.13;39.26
27210;BME280;14721;42.668;23.386;2022-09-09T12:32:40;95286.00;;;30.19;39.58
27210;BME280;14721;42.668;23.386;2022-09-09T12:35:12;95282.22;;;30.43;39.86
27210;BME280;14721;42.668;23.386;2022-09-09T12:37:48;95275.91;;;30.65;38.69
27210;BME280;14721;42.668;23.386;2022-09-09T12:40:30;95261.38;;;30.58;39.37
27210;BME280;14721;42.668;23.386;2022-09-09T12:43:21;95259.94;;;30.56;39.38
27210;BME280;14721;42.668;23.386;2022-09-09T12:45:48;95260.09;;;30.20;39.53
27210;BME280;14721;42.668;23.386;2022-09-09T12:48:17;95261.94;;;30.08;40.15
27210;BME280;14721;42.668;23.386;2022-09-09T12:50:46;95256.41;;;29.96;39.87
27210;BME280;14721;42.668;23.386;2022-09-09T12:53:22;95264.56;;;30.03;40.00
27210;BME280;14721;42.668;23.386;2022-09-09T12:58:20;95258.31;;;30.25;40.49
27210;BME280;14721;42.668;23.386;2022-09-09T13:00:53;95249.34;;;30.00;40.28
27210;BME280;14721;42.668;23.386;2022-09-09T13:03:23;95247.94;;;30.09;40.55
27210;BME280;14721;42.668;23.386;2022-09-09T13:05:51;95241.41;;;30.22;39.97
27210;BME280;14721;42.668;23.386;2022-09-09T13:08:18;95238.44;;;30.35;40.27
27210;BME280;14721;42.668;23.386;2022-09-09T13:10:59;95243.72;;;30.25;40.36
27210;BME280;14721;42.668;23.386;2022-09-09T13:13:39;95227.59;;;29.81;40.53
27210;BME280;14721;42.668;23.386;2022-09-09T13:16:15;95237.91;;;29.38;41.21
27210;BME280;14721;42.668;23.386;2022-09-09T13:18:44;95231.25;;;29.45;41.57
27210;BME280;14721;42.668;23.386;2022-09-09T13:21:09;95234.19;;;29.62;41.39
27210;BME280;14721;42.668;23.386;2022-09-09T13:23:37;95224.94;;;29.56;41.49
27210;BME280;14721;42.668;23.386;2022-09-09T13:26:06;95235.00;;;29.80;41.40
27210;BME280;14721;42.668;23.386;2022-09-09T13:28:33;95234.94;;;29.98;41.04
27210;BME280;14721;42.668;23.386;2022-09-09T13:31:01;95222.56;;;29.78;40.83
27210;BME280;14721;42.668;23.386;2022-09-09T13:33:34;95217.72;;;29.26;41.76
27210;BME280;14721;42.668;23.386;2022-09-09T13:36:10;95212.97;;;29.33;41.90
27210;BME280;14721;42.668;23.386;2022-09-09T13:38:57;95218.41;;;29.39;41.76
27210;BME280;14721;42.668;23.386;2022-09-09T13:41:36;95218.06;;;28.93;42.70
27210;BME280;14721;42.668;23.386;2022-09-09T13:44:22;95210.84;;;28.56;43.62
27210;BME280;14721;42.668;23.386;2022-09-09T13:47:03;95218.56;;;28.47;44.46
27210;BME280;14721;42.668;23.386;2022-09-09T13:49:31;95214.59;;;28.37;44.58
27210;BME280;14721;42.668;23.386;2022-09-09T13:52:10;95212.66;;;28.19;44.77
27210;BME280;14721;42.668;23.386;2022-09-09T13:54:40;95200.41;;;28.15;45.26
27210;BME280;14721;42.668;23.386;2022-09-09T13:57:14;95196.47;;;28.05;45.48
27210;BME280;14721;42.668;23.386;2022-09-09T13:59:40;95199.16;;;27.87;45.79
27210;BME280;14721;42.668;23.386;2022-09-09T14:02:07;95201.38;;;28.03;45.79
27210;BME280;14721;42.668;23.386;2022-09-09T14:04:33;95203.16;;;28.15;45.56
27210;BME280;14721;42.668;23.386;2022-09-09T14:07:01;95197.41;;;28.23;45.63
27210;BME280;14721;42.668;23.386;2022-09-09T14:09:28;95204.13;;;28.27;45.44
27210;BME280;14721;42.668;23.386;2022-09-09T14:11:54;95204.41;;;28.19;46.01
27210;BME280;14721;42.668;23.386;2022-09-09T14:14:20;95202.38;;;28.08;45.99
27210;BME280;14721;42.668;23.386;2022-09-09T14:16:46;95194.69;;;28.17;45.51
27210;BME280;14721;42.668;23.386;2022-09-09T14:19:12;95191.44;;;28.02;45.79
27210;BME280;14721;42.668;23.386;2022-09-09T14:21:37;95185.72;;;28.03;45.91
27210;BME280;14721;42.668;23.386;2022-09-09T14:24:11;95186.91;;;28.14;45.84
27210;BME280;14721;42.668;23.386;2022-09-09T14:26:38;95185.19;;;28.19;45.25
27210;BME280;14721;42.668;23.386;2022-09-09T14:29:05;95187.78;;;28.08;46.11
27210;BME280;14721;42.668;23.386;2022-09-09T14:31:34;95183.56;;;28.12;45.87
27210;BME280;14721;42.668;23.386;2022-09-09T14:34:02;95178.38;;;27.97;45.64
27210;BME280;14721;42.668;23.386;2022-09-09T14:36:28;95183.28;;;27.95;45.63
27210;BME280;14721;42.668;23.386;2022-09-09T14:38:55;95185.84;;;27.90;45.55
27210;BME280;14721;42.668;23.386;2022-09-09T14:41:21;95180.69;;;28.00;45.48
27210;BME280;14721;42.668;23.386;2022-09-09T14:43:49;95172.13;;;27.84;45.44
27210;BME280;14721;42.668;23.386;2022-09-09T14:46:17;95182.44;;;27.57;46.38
27210;BME280;14721;42.668;23.386;2022-09-09T14:48:44;95179.91;;;27.56;46.86
27210;BME280;14721;42.668;23.386;2022-09-09T14:51:22;95179.94;;;27.49;47.46
27210;BME280;14721;42.668;23.386;2022-09-09T14:53:51;95174.56;;;27.36;47.44
27210;BME280;14721;42.668;23.386;2022-09-09T14:56:24;95174.78;;;27.28;47.45
27210;BME280;14721;42.668;23.386;2022-09-09T14:58:54;95180.13;;;27.10;47.83
27210;BME280;14721;42.668;23.386;2022-09-09T15:01:21;95182.44;;;27.13;47.74
27210;BME280;14721;42.668;23.386;2022-09-09T15:03:59;95190.88;;;27.18;47.61
27210;BME280;14721;42.668;23.386;2022-09-09T15:06:29;95183.03;;;27.28;47.18
27210;BME280;14721;42.668;23.386;2022-09-09T15:09:15;95185.78;;;27.21;47.57
27210;BME280;14721;42.668;23.386;2022-09-09T15:11:41;95185.16;;;27.19;47.78
27210;BME280;14721;42.668;23.386;2022-09-09T15:14:11;95184.31;;;27.19;47.72
27210;BME280;14721;42.668;23.386;2022-09-09T15:16:42;95196.38;;;27.11;48.03
27210;BME280;14721;42.668;23.386;2022-09-09T15:19:11;95198.69;;;27.14;48.13